Time;durP1;ratioP1;P1;durP2;ratioP2;P2;SDS_P1;SDS_P2;PMS_P1;PMS_P2;Temp;Humidity;BMP_temperature;BMP_pressure;BME280_temperature;BME280_humidity;BME280_pressure;Samples;Min_cycle;Max_cycle;Signal;HPM_P1;HPM_P2
2023/09/08 00:02:12;;;;;;;735.42;649.53;;;;;;;;;;4919625;29;20387;-60
2023/09/08 00:04:39;;;;;;;732.92;652.83;;;;;;;;;;4926507;29;20056;-59
2023/09/08 00:07:05;;;;;;;747.85;645.03;;;;;;;;;;4926816;29;20056;-59
2023/09/08 00:09:32;;;;;;;723.28;638.83;;;;;;;;;;4923530;29;20052;-59
2023/09/08 00:11:58;;;;;;;712.17;631.80;;;;;;;;;;4925385;29;20458;-59
2023/09/08 00:14:25;;;;;;;734.45;636.28;;;;;;;;;;4922653;29;20051;-60
2023/09/08 00:16:54;;;;;;;736.25;646.80;;;;;;;;;;4925657;29;20487;-59
2023/09/08 00:19:21;;;;;;;715.58;635.72;;;;;;;;;;4909803;29;20056;-61
2023/09/08 00:21:49;;;;;;;747.45;641.80;;;;;;;;;;4924901;28;20056;-59
2023/09/08 00:24:15;;;;;;;731.40;626.72;;;;;;;;;;4923749;29;20100;-59
2023/09/08 00:26:42;;;;;;;714.10;623.88;;;;;;;;;;4924190;28;20070;-59
2023/09/08 00:29:08;;;;;;;725.55;634.10;;;;;;;;;;4924700;29;20135;-59
2023/09/08 00:31:35;;;;;;;719.55;631.65;;;;;;;;;;4923440;29;20048;-60
2023/09/08 00:34:02;;;;;;;726.58;630.00;;;;;;;;;;4922585;29;20052;-60
2023/09/08 00:36:28;;;;;;;718.15;636.92;;;;;;;;;;4922447;29;20059;-60
2023/09/08 00:38:55;;;;;;;729.53;634.67;;;;;;;;;;4921966;29;20498;-60
2023/09/08 00:41:23;;;;;;;708.10;630.05;;;;;;;;;;4925398;29;20048;-59
2023/09/08 00:43:50;;;;;;;723.63;642.92;;;;;;;;;;4891791;29;20048;-59
2023/09/08 00:46:17;;;;;;;747.42;624.95;;;;;;;;;;4926471;29;20139;-59
2023/09/08 00:48:44;;;;;;;736.78;634.55;;;;;;;;;;4915630;28;20047;-60
2023/09/08 00:51:10;;;;;;;717.47;628.72;;;;;;;;;;4919735;29;20056;-59
2023/09/08 00:53:38;;;;;;;730.30;640.58;;;;;;;;;;4924937;29;20116;-60
2023/09/08 00:56:04;;;;;;;719.95;641.17;;;;;;;;;;4921269;28;20518;-59
2023/09/08 00:58:31;;;;;;;730.20;642.88;;;;;;;;;;4925684;28;20056;-59
2023/09/08 01:00:59;;;;;;;734.20;644.40;;;;;;;;;;4921399;28;20067;-60
2023/09/08 01:03:25;;;;;;;725.63;646.38;;;;;;;;;;4920436;29;20060;-59
2023/09/08 01:05:52;;;;;;;722.17;640.80;;;;;;;;;;4924546;29;20055;-60
2023/09/08 01:08:19;;;;;;;719.33;637.38;;;;;;;;;;4916211;29;20103;-60
2023/09/08 01:10:47;;;;;;;720.70;639.45;;;;;;;;;;4925104;29;20413;-59
2023/09/08 01:13:14;;;;;;;729.75;639.17;;;;;;;;;;4913751;29;20585;-60
2023/09/08 01:15:40;;;;;;;750.15;641.13;;;;;;;;;;4920152;29;20071;-60
2023/09/08 01:18:07;;;;;;;724.83;635.25;;;;;;;;;;4920323;29;20060;-59
2023/09/08 01:20:53;;;;;;;729.38;643.45;;;;;;;;;;4913428;29;20051;-59
2023/09/08 01:23:38;;;;;;;721.42;636.33;;;;;;;;;;4921650;29;20131;-59
2023/09/08 01:26:10;;;;;;;704.47;625.63;;;;;;;;;;4921495;29;20624;-59
2023/09/08 01:28:37;;;;;;;724.08;635.08;;;;;;;;;;4922495;29;20141;-59
2023/09/08 01:31:04;;;;;;;762.33;652.83;;;;;;;;;;4922691;29;20406;-60
2023/09/08 01:33:31;;;;;;;731.53;646.20;;;;;;;;;;4904450;29;20064;-60
2023/09/08 01:35:58;;;;;;;726.53;647.53;;;;;;;;;;4903269;29;20107;-59
2023/09/08 01:38:25;;;;;;;717.17;638.05;;;;;;;;;;4921197;28;20052;-60
2023/09/08 01:40:52;;;;;;;718.90;635.42;;;;;;;;;;4925524;29;20056;-59
2023/09/08 01:43:18;;;;;;;725.63;636.97;;;;;;;;;;4921894;29;20051;-59
2023/09/08 01:45:45;;;;;;;712.70;629.63;;;;;;;;;;4910412;29;20059;-59
2023/09/08 01:48:11;;;;;;;717.08;637.85;;;;;;;;;;4921050;29;20059;-60
2023/09/08 01:50:38;;;;;;;729.90;642.38;;;;;;;;;;4913377;29;20063;-59
2023/09/08 01:53:04;;;;;;;722.08;636.30;;;;;;;;;;4922867;29;20047;-60
2023/09/08 01:55:31;;;;;;;706.45;628.35;;;;;;;;;;4922765;29;20589;-59
2023/09/08 01:57:57;;;;;;;749.65;651.20;;;;;;;;;;4921002;29;20083;-60
2023/09/08 02:03:49;;;;;;;;;;;;;;;;;;4956273;28;20074;-59
2023/09/08 02:06:15;;;;;;;708.17;603.65;;;;;;;;;;4952656;28;19958;-59
2023/09/08 02:08:42;;;;;;;706.00;623.58;;;;;;;;;;4968539;28;20510;-59
2023/09/08 02:11:08;;;;;;;715.33;625.05;;;;;;;;;;4958799;28;20549;-59
2023/09/08 02:13:36;;;;;;;713.35;629.65;;;;;;;;;;4959746;28;20039;-58
2023/09/08 02:16:02;;;;;;;710.05;626.60;;;;;;;;;;4959722;28;20066;-58
2023/09/08 02:18:29;;;;;;;714.92;636.78;;;;;;;;;;4968507;28;20055;-59
2023/09/08 02:20:56;;;;;;;720.38;641.13;;;;;;;;;;4952232;28;21079;-58
2023/09/08 02:23:23;;;;;;;714.00;636.88;;;;;;;;;;4957637;28;20051;-58
2023/09/08 02:25:49;;;;;;;721.05;636.03;;;;;;;;;;4959433;28;20051;-58
2023/09/08 02:28:16;;;;;;;728.70;642.75;;;;;;;;;;4944819;28;20069;-59
2023/09/08 02:30:43;;;;;;;767.05;653.50;;;;;;;;;;4959152;28;20050;-59
2023/09/08 02:33:09;;;;;;;787.42;651.85;;;;;;;;;;4951412;28;20062;-58
2023/09/08 02:35:38;;;;;;;740.70;644.35;;;;;;;;;;4956249;28;20079;-59
2023/09/08 02:38:05;;;;;;;725.97;645.55;;;;;;;;;;4960311;28;20412;-58
2023/09/08 02:40:34;;;;;;;729.83;642.95;;;;;;;;;;4957182;28;20060;-59
2023/09/08 02:43:02;;;;;;;741.97;643.95;;;;;;;;;;4956307;28;20133;-59
2023/09/08 02:45:29;;;;;;;717.50;639.95;;;;;;;;;;4953301;28;20113;-59
2023/09/08 02:47:57;;;;;;;733.42;653.70;;;;;;;;;;4948223;28;20051;-58
2023/09/08 02:50:24;;;;;;;742.58;661.00;;;;;;;;;;4950127;28;20133;-59
2023/09/08 02:52:50;;;;;;;722.70;643.03;;;;;;;;;;4950367;28;20051;-59
2023/09/08 02:55:17;;;;;;;853.67;640.38;;;;;;;;;;4961444;28;20058;-59
2023/09/08 02:57:43;;;;;;;831.70;651.20;;;;;;;;;;4952203;28;20505;-59
2023/09/08 03:00:10;;;;;;;800.60;645.20;;;;;;;;;;4955912;28;20059;-59
2023/09/08 03:02:37;;;;;;;766.42;654.90;;;;;;;;;;4956037;28;20058;-60
2023/09/08 03:05:04;;;;;;;720.58;630.83;;;;;;;;;;4951093;28;20070;-59
2023/09/08 03:07:33;;;;;;;711.75;634.28;;;;;;;;;;4962417;28;20071;-59
2023/09/08 03:10:00;;;;;;;737.55;648.22;;;;;;;;;;4950346;28;20446;-59
2023/09/08 03:12:27;;;;;;;730.53;645.85;;;;;;;;;;4955504;28;20738;-59
2023/09/08 03:14:54;;;;;;;717.13;638.50;;;;;;;;;;4952326;28;20046;-58
2023/09/08 03:17:21;;;;;;;719.13;640.03;;;;;;;;;;4955766;28;20383;-59
2023/09/08 03:19:48;;;;;;;715.60;633.13;;;;;;;;;;4951627;28;20051;-59
2023/09/08 03:22:14;;;;;;;729.75;632.83;;;;;;;;;;4957234;28;20709;-59
2023/09/08 03:24:41;;;;;;;716.05;631.22;;;;;;;;;;4956728;28;20082;-59
2023/09/08 03:27:08;;;;;;;716.58;632.05;;;;;;;;;;4951244;28;20445;-58
2023/09/08 03:29:35;;;;;;;702.83;625.40;;;;;;;;;;4948838;28;20046;-59
2023/09/08 03:32:01;;;;;;;728.80;630.78;;;;;;;;;;4957904;28;20055;-59
2023/09/08 03:34:28;;;;;;;737.53;628.33;;;;;;;;;;4958665;28;20067;-58
2023/09/08 03:36:55;;;;;;;767.28;629.92;;;;;;;;;;4959000;28;20390;-58
2023/09/08 03:39:22;;;;;;;720.28;639.03;;;;;;;;;;4959443;28;20055;-59
2023/09/08 03:41:48;;;;;;;718.58;626.35;;;;;;;;;;4954786;28;20110;-58
2023/09/08 03:44:15;;;;;;;743.08;639.10;;;;;;;;;;4951261;28;20124;-58
2023/09/08 03:46:42;;;;;;;698.78;619.50;;;;;;;;;;4961666;28;20641;-59
2023/09/08 03:49:08;;;;;;;722.83;633.78;;;;;;;;;;4960801;28;20063;-58
2023/09/08 03:51:36;;;;;;;708.60;627.05;;;;;;;;;;4955619;28;20051;-59
2023/09/08 03:54:03;;;;;;;705.78;616.85;;;;;;;;;;4961025;28;20046;-60
2023/09/08 03:56:30;;;;;;;717.22;627.20;;;;;;;;;;4952930;28;20055;-59
2023/09/08 03:58:56;;;;;;;735.92;630.60;;;;;;;;;;4954308;28;20047;-59
2023/09/08 04:01:23;;;;;;;738.50;625.72;;;;;;;;;;4962671;28;20042;-58
2023/09/08 04:03:50;;;;;;;768.83;640.45;;;;;;;;;;4946127;28;20062;-60
2023/09/08 04:06:16;;;;;;;713.88;609.40;;;;;;;;;;4949453;28;20504;-58
2023/09/08 04:08:43;;;;;;;703.50;624.08;;;;;;;;;;4967316;28;20047;-58
2023/09/08 04:11:10;;;;;;;724.60;627.03;;;;;;;;;;4951940;28;20066;-61
2023/09/08 04:13:37;;;;;;;721.58;619.28;;;;;;;;;;4963071;28;20078;-59
2023/09/08 04:16:04;;;;;;;731.60;612.78;;;;;;;;;;4968934;28;20051;-60
2023/09/08 04:18:31;;;;;;;717.38;615.60;;;;;;;;;;4970384;28;20057;-58
2023/09/08 04:20:58;;;;;;;725.05;627.47;;;;;;;;;;4962360;28;20051;-58
2023/09/08 04:23:25;;;;;;;704.10;626.20;;;;;;;;;;4970126;28;20146;-58
2023/09/08 04:25:51;;;;;;;1007.17;632.00;;;;;;;;;;4960934;28;20058;-59
2023/09/08 04:28:19;;;;;;;746.45;618.58;;;;;;;;;;4954343;28;20118;-59
2023/09/08 04:30:46;;;;;;;940.17;647.55;;;;;;;;;;4961434;28;20125;-59
2023/09/08 04:33:12;;;;;;;761.28;632.75;;;;;;;;;;4943958;28;20130;-59
2023/09/08 04:35:39;;;;;;;769.60;640.97;;;;;;;;;;4941200;28;20049;-58
2023/09/08 04:38:06;;;;;;;749.67;649.50;;;;;;;;;;4952586;28;20685;-58
2023/09/08 04:40:32;;;;;;;734.13;628.83;;;;;;;;;;4958654;28;20099;-59
2023/09/08 04:42:59;;;;;;;765.92;651.65;;;;;;;;;;4959889;28;20523;-59
2023/09/08 04:45:26;;;;;;;719.47;635.05;;;;;;;;;;4951752;28;20051;-58
2023/09/08 04:47:52;;;;;;;733.28;647.60;;;;;;;;;;4965193;28;20051;-59
2023/09/08 04:50:20;;;;;;;733.40;646.88;;;;;;;;;;4951961;28;20054;-60
2023/09/08 04:52:46;;;;;;;732.35;653.50;;;;;;;;;;4969342;28;20054;-59
2023/09/08 04:55:14;;;;;;;771.70;665.60;;;;;;;;;;4953396;28;20054;-59
2023/09/08 04:57:41;;;;;;;757.33;675.50;;;;;;;;;;4954613;28;20046;-59
2023/09/08 05:00:07;;;;;;;765.65;684.33;;;;;;;;;;4957334;28;20057;-63
2023/09/08 05:02:34;;;;;;;788.75;706.40;;;;;;;;;;4963998;28;20054;-59
2023/09/08 05:05:02;;;;;;;808.80;722.35;;;;;;;;;;4943843;28;20059;-59
2023/09/08 05:07:30;;;;;;;813.45;730.22;;;;;;;;;;4965305;28;20438;-59
2023/09/08 05:09:57;;;;;;;838.05;747.90;;;;;;;;;;4960049;28;20058;-61
2023/09/08 05:12:27;;;;;;;861.83;735.00;;;;;;;;;;4951128;28;20067;-60
2023/09/08 05:14:59;;;;;;;829.28;743.05;;;;;;;;;;4963615;28;20051;-60
2023/09/08 05:17:26;;;;;;;824.08;738.05;;;;;;;;;;4957266;28;20043;-60
2023/09/08 05:19:53;;;;;;;816.08;732.80;;;;;;;;;;4951599;28;20094;-59
2023/09/08 05:22:20;;;;;;;818.38;736.17;;;;;;;;;;4944185;28;20102;-59
2023/09/08 05:24:48;;;;;;;830.33;743.53;;;;;;;;;;4953303;28;20062;-58
2023/09/08 05:27:14;;;;;;;826.53;742.08;;;;;;;;;;4951445;28;20421;-58
2023/09/08 05:29:41;;;;;;;815.63;733.10;;;;;;;;;;4969195;28;20082;-59
2023/09/08 05:32:07;;;;;;;842.17;758.50;;;;;;;;;;4963876;28;20050;-59
2023/09/08 05:34:34;;;;;;;832.45;746.25;;;;;;;;;;4964600;28;20139;-58
2023/09/08 05:37:01;;;;;;;848.90;757.97;;;;;;;;;;4961205;28;20050;-59
2023/09/08 05:39:27;;;;;;;840.65;755.72;;;;;;;;;;4948661;28;20050;-60
2023/09/08 05:41:55;;;;;;;889.45;751.90;;;;;;;;;;4951628;28;20126;-59
2023/09/08 05:44:22;;;;;;;892.65;761.90;;;;;;;;;;4964938;28;20182;-60
2023/09/08 05:46:49;;;;;;;855.10;766.38;;;;;;;;;;4961285;28;20074;-58
2023/09/08 05:49:17;;;;;;;968.60;784.50;;;;;;;;;;4952487;28;20059;-59
2023/09/08 05:51:44;;;;;;;866.08;773.35;;;;;;;;;;4953281;28;20047;-59
2023/09/08 05:54:12;;;;;;;865.90;777.50;;;;;;;;;;4968944;28;20058;-59
2023/09/08 05:56:38;;;;;;;949.10;783.05;;;;;;;;;;4952411;28;20097;-59
2023/09/08 05:59:06;;;;;;;881.60;789.20;;;;;;;;;;4950259;28;20062;-59
2023/09/08 06:01:33;;;;;;;901.20;803.55;;;;;;;;;;4949825;28;20057;-59
2023/09/08 06:04:01;;;;;;;900.55;808.95;;;;;;;;;;4962409;28;20051;-59
2023/09/08 06:06:29;;;;;;;914.80;827.20;;;;;;;;;;4952378;28;20460;-59
2023/09/08 06:08:57;;;;;;;934.92;846.53;;;;;;;;;;4952057;28;20501;-60
2023/09/08 06:11:25;;;;;;;965.83;876.35;;;;;;;;;;4958516;28;20047;-59
2023/09/08 06:13:54;;;;;;;968.17;877.65;;;;;;;;;;4964695;28;20138;-59
2023/09/08 06:16:21;;;;;;;984.83;891.00;;;;;;;;;;4962016;28;20054;-59
2023/09/08 06:18:48;;;;;;;1019.90;924.58;;;;;;;;;;4959384;28;20055;-59
2023/09/08 06:21:18;;;;;;;1032.40;938.88;;;;;;;;;;4962251;28;20081;-59
2023/09/08 06:23:44;;;;;;;1041.43;949.63;;;;;;;;;;4966811;28;20058;-59
2023/09/08 06:26:12;;;;;;;1065.75;971.58;;;;;;;;;;4962333;28;20165;-60
2023/09/08 06:28:41;;;;;;;1075.72;980.70;;;;;;;;;;4964380;28;20055;-58
2023/09/08 06:31:08;;;;;;;1094.70;993.60;;;;;;;;;;4961564;28;20626;-59
2023/09/08 06:33:36;;;;;;;1099.70;998.83;;;;;;;;;;4953694;28;20122;-59
2023/09/08 06:36:04;;;;;;;1104.47;999.17;;;;;;;;;;4949740;28;20046;-59
2023/09/08 06:38:31;;;;;;;1113.88;999.90;;;;;;;;;;4950468;28;20046;-59
2023/09/08 06:41:00;;;;;;;1114.07;999.90;;;;;;;;;;4950782;28;20527;-59
2023/09/08 06:43:27;;;;;;;1129.25;999.90;;;;;;;;;;4963644;28;20050;-60
2023/09/08 06:46:01;;;;;;;1126.53;999.90;;;;;;;;;;4959817;28;20055;-59
2023/09/08 06:48:29;;;;;;;1123.82;999.90;;;;;;;;;;4960320;28;20070;-59
2023/09/08 06:50:56;;;;;;;1127.97;999.90;;;;;;;;;;4964456;28;20047;-59
2023/09/08 06:53:24;;;;;;;1134.93;999.90;;;;;;;;;;4951995;28;20420;-59
2023/09/08 06:55:51;;;;;;;1122.72;999.90;;;;;;;;;;4950970;28;20054;-60
2023/09/08 06:58:18;;;;;;;1150.78;999.90;;;;;;;;;;4960345;28;20146;-59
2023/09/08 07:00:45;;;;;;;1144.97;999.90;;;;;;;;;;4958074;28;20055;-61
2023/09/08 07:03:12;;;;;;;1146.63;999.90;;;;;;;;;;4963758;28;20063;-59
2023/09/08 07:05:39;;;;;;;1158.75;999.90;;;;;;;;;;4959274;28;20118;-59
2023/09/08 07:08:06;;;;;;;1157.82;999.90;;;;;;;;;;4951884;28;20046;-59
2023/09/08 07:10:33;;;;;;;1159.82;999.90;;;;;;;;;;4960630;28;20055;-59
2023/09/08 07:13:00;;;;;;;1167.82;999.90;;;;;;;;;;4964290;28;20115;-59
2023/09/08 07:15:26;;;;;;;1166.47;999.90;;;;;;;;;;4967294;28;20077;-59
2023/09/08 07:17:53;;;;;;;1159.10;999.90;;;;;;;;;;4965025;28;20057;-59
2023/09/08 07:20:20;;;;;;;1159.43;999.90;;;;;;;;;;4967386;28;20747;-60
2023/09/08 07:22:47;;;;;;;1160.18;999.90;;;;;;;;;;4970911;28;20528;-61
2023/09/08 07:25:14;;;;;;;1166.07;999.90;;;;;;;;;;4967146;28;20047;-59
2023/09/08 07:27:41;;;;;;;1152.22;999.90;;;;;;;;;;4949126;28;20094;-60
2023/09/08 07:30:08;;;;;;;1158.80;999.90;;;;;;;;;;4962810;28;20054;-60
2023/09/08 07:32:35;;;;;;;1154.85;999.90;;;;;;;;;;4969769;28;20070;-59
2023/09/08 07:35:02;;;;;;;1169.43;999.90;;;;;;;;;;4954014;28;20145;-60
2023/09/08 07:37:29;;;;;;;1140.72;999.90;;;;;;;;;;4952267;28;20067;-59
2023/09/08 07:39:56;;;;;;;1147.70;999.90;;;;;;;;;;4953945;28;20571;-59
2023/09/08 07:42:23;;;;;;;1124.95;999.90;;;;;;;;;;4964238;28;20083;-60
2023/09/08 07:44:50;;;;;;;1122.00;999.90;;;;;;;;;;4966409;28;20051;-60
2023/09/08 07:47:17;;;;;;;1113.25;999.90;;;;;;;;;;4961703;28;20055;-59
2023/09/08 07:49:45;;;;;;;1104.80;999.90;;;;;;;;;;4966918;28;20452;-59
2023/09/08 07:52:11;;;;;;;1103.07;998.08;;;;;;;;;;4954303;28;20085;-60
2023/09/08 07:54:38;;;;;;;1091.03;995.05;;;;;;;;;;4962758;28;20063;-59
2023/09/08 07:57:05;;;;;;;1090.72;988.58;;;;;;;;;;4966036;28;20059;-59
2023/09/08 07:59:31;;;;;;;1089.40;993.40;;;;;;;;;;4961969;28;20070;-60
2023/09/08 08:02:00;;;;;;;1076.65;981.58;;;;;;;;;;4965848;28;20059;-59
2023/09/08 08:04:27;;;;;;;1085.22;985.80;;;;;;;;;;4965458;28;20065;-60
2023/09/08 08:06:54;;;;;;;1097.25;993.80;;;;;;;;;;4962004;28;20059;-60
2023/09/08 08:09:20;;;;;;;1084.53;988.33;;;;;;;;;;4964851;28;20058;-60
2023/09/08 08:11:47;;;;;;;1069.43;974.13;;;;;;;;;;4964074;28;20775;-59
2023/09/08 08:14:13;;;;;;;1064.75;971.10;;;;;;;;;;4963789;28;20047;-60
2023/09/08 08:16:40;;;;;;;1071.00;973.53;;;;;;;;;;4962832;28;20047;-59
2023/09/08 08:19:07;;;;;;;1080.22;984.95;;;;;;;;;;4963565;28;20051;-60
2023/09/08 08:21:33;;;;;;;1064.63;971.63;;;;;;;;;;4963325;28;20055;-59
2023/09/08 08:24:00;;;;;;;1062.90;970.25;;;;;;;;;;4963164;28;20059;-60
2023/09/08 08:26:29;;;;;;;1073.18;978.70;;;;;;;;;;4964931;28;20118;-59
2023/09/08 08:28:56;;;;;;;1066.00;972.33;;;;;;;;;;4963594;28;20049;-59
2023/09/08 08:31:24;;;;;;;1093.82;991.47;;;;;;;;;;4963471;28;20556;-59
2023/09/08 08:33:51;;;;;;;1072.70;973.25;;;;;;;;;;4963083;28;20134;-59
2023/09/08 08:36:17;;;;;;;1065.65;971.90;;;;;;;;;;4960732;28;20051;-60
2023/09/08 08:38:44;;;;;;;1070.57;975.75;;;;;;;;;;4965743;28;20039;-59
2023/09/08 08:41:11;;;;;;;1064.97;970.28;;;;;;;;;;4962177;28;20074;-60
2023/09/08 08:43:38;;;;;;;1068.72;974.90;;;;;;;;;;4966435;28;20134;-58
2023/09/08 08:46:05;;;;;;;1078.75;979.53;;;;;;;;;;4957623;28;20074;-60
2023/09/08 08:48:32;;;;;;;1058.85;965.42;;;;;;;;;;4962135;28;20448;-59
2023/09/08 08:50:59;;;;;;;1058.20;964.10;;;;;;;;;;4964014;28;20457;-59
2023/09/08 08:53:26;;;;;;;1058.82;966.33;;;;;;;;;;4953526;28;20046;-59
2023/09/08 08:55:55;;;;;;;1070.78;976.58;;;;;;;;;;4965111;28;20063;-60
2023/09/08 08:58:25;;;;;;;1059.47;966.90;;;;;;;;;;4953779;28;20047;-60
2023/09/08 09:00:54;;;;;;;1080.35;983.42;;;;;;;;;;4960815;28;20059;-59
2023/09/08 09:03:21;;;;;;;1076.45;976.85;;;;;;;;;;4966013;28;20062;-60
2023/09/08 09:05:47;;;;;;;1069.95;976.13;;;;;;;;;;4962411;28;20096;-60
2023/09/08 09:08:18;;;;;;;1071.43;977.00;;;;;;;;;;4963728;28;20726;-59
2023/09/08 09:10:45;;;;;;;1064.70;970.17;;;;;;;;;;4961591;28;20054;-59
2023/09/08 09:13:11;;;;;;;1079.70;984.78;;;;;;;;;;4953876;28;20042;-59
2023/09/08 09:15:38;;;;;;;1075.57;982.53;;;;;;;;;;4963219;28;20154;-59
2023/09/08 09:18:05;;;;;;;1078.40;983.33;;;;;;;;;;4960840;28;20062;-59
2023/09/08 09:20:32;;;;;;;1065.78;971.38;;;;;;;;;;4963663;28;20079;-60
2023/09/08 09:22:59;;;;;;;1073.32;979.17;;;;;;;;;;4960016;28;20086;-59
2023/09/08 09:25:27;;;;;;;1069.82;977.28;;;;;;;;;;4963073;28;20138;-59
2023/09/08 09:27:55;;;;;;;1076.63;977.63;;;;;;;;;;4961643;28;20061;-60
2023/09/08 09:30:24;;;;;;;1076.72;982.13;;;;;;;;;;4960172;28;20059;-60
2023/09/08 09:33:01;;;;;;;1072.70;979.67;;;;;;;;;;4962655;28;20078;-60
2023/09/08 09:35:41;;;;;;;1074.75;980.55;;;;;;;;;;4959816;28;20134;-59
2023/09/08 09:38:08;;;;;;;1082.07;987.65;;;;;;;;;;4963644;28;20047;-59
2023/09/08 09:40:35;;;;;;;1082.35;986.97;;;;;;;;;;4962869;28;20078;-59
2023/09/08 09:43:04;;;;;;;1095.75;995.20;;;;;;;;;;4962393;28;20054;-60
2023/09/08 09:45:32;;;;;;;1089.30;993.78;;;;;;;;;;4961538;28;20166;-59
2023/09/08 09:47:58;;;;;;;1081.63;986.72;;;;;;;;;;4960502;28;20072;-59
2023/09/08 09:50:35;;;;;;;1078.75;985.80;;;;;;;;;;4962783;28;20063;-58
2023/09/08 09:53:08;;;;;;;1085.50;989.38;;;;;;;;;;4957876;28;20055;-60
2023/09/08 09:55:36;;;;;;;1084.03;989.20;;;;;;;;;;4963908;28;20054;-59
2023/09/08 09:58:03;;;;;;;1097.95;996.15;;;;;;;;;;4960403;28;20539;-60
2023/09/08 10:00:33;;;;;;;1092.35;996.92;;;;;;;;;;4960329;28;20103;-60
2023/09/08 10:02:59;;;;;;;1090.90;995.80;;;;;;;;;;4966642;28;20063;-59
2023/09/08 10:05:27;;;;;;;1090.43;995.58;;;;;;;;;;4956278;28;20137;-60
2023/09/08 10:07:53;;;;;;;1096.40;997.15;;;;;;;;;;4964467;28;20072;-60
2023/09/08 10:10:21;;;;;;;1089.00;993.75;;;;;;;;;;4962540;28;20047;-59
2023/09/08 10:12:54;;;;;;;1098.80;999.90;;;;;;;;;;4959546;28;20153;-60
2023/09/08 10:15:21;;;;;;;1103.88;999.90;;;;;;;;;;4944121;28;20058;-60
2023/09/08 10:17:58;;;;;;;1104.82;999.28;;;;;;;;;;4961127;28;20062;-60
2023/09/08 10:20:26;;;;;;;1105.45;999.90;;;;;;;;;;4962420;28;20141;-59
2023/09/08 10:22:56;;;;;;;1104.60;995.53;;;;;;;;;;4951369;28;20511;-60
2023/09/08 10:25:24;;;;;;;1106.28;999.90;;;;;;;;;;4961751;28;20055;-60
2023/09/08 10:27:53;;;;;;;1105.70;999.45;;;;;;;;;;4960786;28;20051;-59
2023/09/08 10:30:21;;;;;;;1108.47;999.90;;;;;;;;;;4958587;28;20433;-59
2023/09/08 10:32:49;;;;;;;1119.10;999.90;;;;;;;;;;4962340;28;20134;-59
2023/09/08 10:35:17;;;;;;;1123.45;999.90;;;;;;;;;;4958511;28;20059;-59
2023/09/08 10:37:44;;;;;;;1102.57;997.95;;;;;;;;;;4963493;28;20059;-59
2023/09/08 10:40:19;;;;;;;1119.75;999.90;;;;;;;;;;4963768;28;20055;-60
2023/09/08 10:42:46;;;;;;;1110.78;999.90;;;;;;;;;;4963992;28;20055;-60
2023/09/08 10:45:17;;;;;;;1105.53;999.90;;;;;;;;;;4951588;28;20473;-60
2023/09/08 10:47:46;;;;;;;1107.57;999.90;;;;;;;;;;4965570;28;20059;-60
2023/09/08 10:50:25;;;;;;;1103.47;999.90;;;;;;;;;;4951262;28;20058;-60
2023/09/08 10:53:05;;;;;;;1107.93;999.90;;;;;;;;;;4964388;28;20126;-60
2023/09/08 10:56:00;;;;;;;1112.53;999.90;;;;;;;;;;4966238;28;20587;-60
2023/09/08 10:58:42;;;;;;;1113.85;999.90;;;;;;;;;;4951457;28;20059;-60
2023/09/08 11:01:15;;;;;;;1118.82;999.90;;;;;;;;;;4964122;28;20047;-60
2023/09/08 11:03:41;;;;;;;1110.53;999.90;;;;;;;;;;4968330;28;20055;-60
2023/09/08 11:06:09;;;;;;;1116.45;999.90;;;;;;;;;;4962599;28;20158;-59
2023/09/08 11:08:37;;;;;;;1119.13;999.90;;;;;;;;;;4965426;28;20066;-60
2023/09/08 11:11:04;;;;;;;1125.45;999.90;;;;;;;;;;4962817;28;20059;-59
2023/09/08 11:13:30;;;;;;;1132.53;999.90;;;;;;;;;;4965805;28;20429;-59
2023/09/08 11:15:57;;;;;;;1138.65;999.90;;;;;;;;;;4963636;28;20051;-60
2023/09/08 11:18:30;;;;;;;1117.10;999.90;;;;;;;;;;4961862;28;20047;-60
2023/09/08 11:20:57;;;;;;;1116.90;999.90;;;;;;;;;;4965570;28;20070;-60
2023/09/08 11:23:25;;;;;;;1114.88;999.90;;;;;;;;;;4960665;28;20044;-59
2023/09/08 11:25:52;;;;;;;1110.60;999.90;;;;;;;;;;4965098;28;20054;-60
2023/09/08 11:28:21;;;;;;;1111.18;999.90;;;;;;;;;;4964556;28;20445;-61
2023/09/08 11:30:48;;;;;;;1105.22;999.90;;;;;;;;;;4961054;28;20051;-59
2023/09/08 11:33:15;;;;;;;1112.70;999.90;;;;;;;;;;4963604;28;20059;-59
2023/09/08 11:35:43;;;;;;;1099.15;999.47;;;;;;;;;;4962486;28;20070;-60
2023/09/08 11:38:10;;;;;;;1108.95;999.90;;;;;;;;;;4965305;28;20059;-59
2023/09/08 11:40:37;;;;;;;1107.45;999.90;;;;;;;;;;4963943;28;20424;-59
2023/09/08 11:43:04;;;;;;;1103.90;999.90;;;;;;;;;;4964146;28;20524;-61
2023/09/08 11:45:34;;;;;;;1110.15;999.90;;;;;;;;;;4963109;28;20055;-61
2023/09/08 11:48:00;;;;;;;1102.65;999.72;;;;;;;;;;4962117;28;20086;-60
2023/09/08 11:50:27;;;;;;;1113.53;999.90;;;;;;;;;;4964060;28;20105;-60
2023/09/08 11:52:54;;;;;;;1109.28;999.90;;;;;;;;;;4954394;28;20050;-60
2023/09/08 11:55:21;;;;;;;1122.95;999.90;;;;;;;;;;4963119;28;20062;-60
2023/09/08 11:57:57;;;;;;;1111.35;999.90;;;;;;;;;;4964045;28;20080;-59
2023/09/08 12:00:25;;;;;;;1115.72;999.90;;;;;;;;;;4961915;28;20055;-60
2023/09/08 12:02:52;;;;;;;1107.25;999.90;;;;;;;;;;4967200;28;20066;-59
2023/09/08 12:05:23;;;;;;;1103.35;999.90;;;;;;;;;;4960144;28;20058;-59
2023/09/08 12:07:50;;;;;;;1113.45;999.90;;;;;;;;;;4962256;28;20485;-59
2023/09/08 12:10:18;;;;;;;1106.32;999.90;;;;;;;;;;4962906;28;20043;-59
2023/09/08 12:12:45;;;;;;;1103.43;999.88;;;;;;;;;;4964614;28;20059;-59
2023/09/08 12:15:28;;;;;;;1121.05;999.90;;;;;;;;;;4963011;28;20090;-59
2023/09/08 12:17:55;;;;;;;1098.40;999.22;;;;;;;;;;4959049;28;20058;-59
2023/09/08 12:20:22;;;;;;;1110.38;999.90;;;;;;;;;;4962165;28;20054;-60
2023/09/08 12:22:50;;;;;;;1138.15;999.90;;;;;;;;;;4962321;28;20446;-60
2023/09/08 12:25:16;;;;;;;1120.30;999.90;;;;;;;;;;4963416;28;20137;-60
2023/09/08 12:27:44;;;;;;;1111.13;999.90;;;;;;;;;;4962785;28;20129;-60
2023/09/08 12:30:16;;;;;;;1121.65;999.90;;;;;;;;;;4963358;28;20054;-60
2023/09/08 12:32:45;;;;;;;1117.32;999.90;;;;;;;;;;4961749;28;20054;-60
2023/09/08 12:35:11;;;;;;;1131.07;999.90;;;;;;;;;;4962776;28;20121;-60
2023/09/08 12:37:38;;;;;;;1109.13;999.90;;;;;;;;;;4962858;28;20627;-60
2023/09/08 12:40:05;;;;;;;1124.93;999.90;;;;;;;;;;4961138;28;20055;-60
2023/09/08 12:42:31;;;;;;;1116.63;999.90;;;;;;;;;;4964469;28;20059;-59
2023/09/08 12:45:02;;;;;;;1133.45;999.90;;;;;;;;;;4963256;28;20488;-59
2023/09/08 12:47:29;;;;;;;1129.85;999.90;;;;;;;;;;4962693;28;20050;-60
2023/09/08 12:49:56;;;;;;;1116.10;999.90;;;;;;;;;;4962413;28;20046;-59
2023/09/08 12:52:22;;;;;;;1113.63;999.90;;;;;;;;;;4963748;28;20059;-60
2023/09/08 12:54:49;;;;;;;1121.97;999.90;;;;;;;;;;4954559;28;20055;-61
2023/09/08 12:57:15;;;;;;;1132.90;999.90;;;;;;;;;;4962197;28;20850;-59
2023/09/08 12:59:42;;;;;;;1130.90;999.90;;;;;;;;;;4963207;28;20051;-59
2023/09/08 13:02:08;;;;;;;1126.70;999.90;;;;;;;;;;4957997;28;20493;-60
2023/09/08 13:04:35;;;;;;;1119.68;999.90;;;;;;;;;;4951479;29;20765;-60
2023/09/08 13:07:01;;;;;;;1140.60;999.90;;;;;;;;;;4951505;28;20055;-59
2023/09/08 13:09:28;;;;;;;1129.57;999.90;;;;;;;;;;4952095;29;20602;-60
2023/09/08 13:11:55;;;;;;;1121.57;999.90;;;;;;;;;;4950994;28;20051;-59
2023/09/08 13:14:21;;;;;;;1133.50;999.90;;;;;;;;;;4951193;28;20055;-60
2023/09/08 13:16:48;;;;;;;1128.05;999.90;;;;;;;;;;4950988;28;20457;-60
2023/09/08 13:19:14;;;;;;;1130.85;999.90;;;;;;;;;;4951249;29;20055;-60
2023/09/08 13:21:41;;;;;;;1134.18;999.90;;;;;;;;;;4952511;29;20051;-59
2023/09/08 13:24:08;;;;;;;1191.07;999.90;;;;;;;;;;4951385;28;20078;-59
2023/09/08 13:26:34;;;;;;;1133.22;999.90;;;;;;;;;;4949034;28;20114;-59
2023/09/08 13:29:01;;;;;;;1137.68;999.90;;;;;;;;;;4951378;28;20059;-59
2023/09/08 13:31:27;;;;;;;1151.70;999.90;;;;;;;;;;4941833;29;20058;-59
2023/09/08 13:33:54;;;;;;;1133.63;999.90;;;;;;;;;;4951557;29;20082;-59
2023/09/08 13:36:21;;;;;;;1131.38;999.90;;;;;;;;;;4951531;29;20059;-60
2023/09/08 13:38:47;;;;;;;1129.57;999.90;;;;;;;;;;4951442;28;20039;-60
2023/09/08 13:41:14;;;;;;;1158.50;999.90;;;;;;;;;;4950472;28;20118;-59
2023/09/08 13:43:40;;;;;;;1124.05;999.90;;;;;;;;;;4950873;29;20063;-59
2023/09/08 13:46:11;;;;;;;1138.00;999.90;;;;;;;;;;4950327;28;20058;-60
2023/09/08 13:48:37;;;;;;;1132.18;999.90;;;;;;;;;;4951347;28;20066;-60
2023/09/08 13:51:05;;;;;;;1133.20;999.90;;;;;;;;;;4950521;28;20489;-59
2023/09/08 13:53:33;;;;;;;1133.20;999.90;;;;;;;;;;4951042;28;20051;-60